createdAt,value
2019-03-25T00:01:29.484Z,24.70
2019-03-25T00:04:00.980Z,23.57
2019-03-25T00:06:32.633Z,22.03
2019-03-25T00:09:05.862Z,22.73
2019-03-25T00:11:37.351Z,23.70
2019-03-25T00:14:08.817Z,22.10
2019-03-25T00:16:40.182Z,24.40
2019-03-25T00:19:11.728Z,24.70
2019-03-25T00:21:43.044Z,24.17
2019-03-25T00:24:14.423Z,23.67
2019-03-25T00:26:45.982Z,20.73
2019-03-25T00:29:17.431Z,22.40
2019-03-25T00:31:48.887Z,23.87
2019-03-25T00:34:20.408Z,22.47
2019-03-25T00:36:51.839Z,19.27
2019-03-25T00:39:25.119Z,23.17
2019-03-25T00:41:56.624Z,22.23
2019-03-25T00:44:27.755Z,23.23
2019-03-25T00:46:59.180Z,21.83
2019-03-25T00:49:30.825Z,24.07
2019-03-25T00:52:02.285Z,25.37
2019-03-25T00:54:33.549Z,24.73
2019-03-25T00:57:05.192Z,20.20
2019-03-25T00:59:36.782Z,21.13
2019-03-25T01:02:08.059Z,20.10
2019-03-25T01:04:40.530Z,18.80
2019-03-25T01:07:12.054Z,19.93
2019-03-25T01:09:43.400Z,20.10
2019-03-25T01:12:14.688Z,23.40
2019-03-25T01:14:46.280Z,21.13
2019-03-25T01:17:17.604Z,24.37
2019-03-25T01:19:48.956Z,22.63
2019-03-25T01:22:20.105Z,23.03
2019-03-25T01:25:01.173Z,21.73
2019-03-25T01:27:24.388Z,18.73
2019-03-25T01:29:55.682Z,19.30
2019-03-25T01:32:27.154Z,20.13
2019-03-25T01:35:01.070Z,21.93
2019-03-25T01:37:32.621Z,22.33
2019-03-25T01:40:04.117Z,19.40
2019-03-25T01:42:35.301Z,25.47
2019-03-25T01:45:07.329Z,20.50
2019-03-25T01:47:38.898Z,18.03
2019-03-25T01:50:10.107Z,21.23
2019-03-25T01:52:41.523Z,19.13
2019-03-25T01:55:13.801Z,19.73
2019-03-25T01:57:45.286Z,20.40
2019-03-25T02:00:16.745Z,21.50
2019-03-25T02:02:47.983Z,17.70
2019-03-25T02:05:18.967Z,21.23
2019-03-25T02:07:50.654Z,22.27
2019-03-25T02:10:21.940Z,22.33
2019-03-25T02:12:53.076Z,21.53
2019-03-25T02:15:24.369Z,20.97
2019-03-25T02:17:55.755Z,18.10
2019-03-25T02:20:27.239Z,21.53
2019-03-25T02:22:58.572Z,23.53
2019-03-25T02:25:30.032Z,22.63
2019-03-25T02:28:01.358Z,21.87
2019-03-25T02:30:32.483Z,23.03
2019-03-25T02:33:04.069Z,24.20
2019-03-25T02:35:35.131Z,24.87
2019-03-25T02:38:06.265Z,25.30
2019-03-25T02:40:37.621Z,25.67
2019-03-25T02:43:09.046Z,23.30
2019-03-25T02:45:40.223Z,24.50
2019-03-25T02:48:11.472Z,19.10
2019-03-25T02:50:42.903Z,23.47
2019-03-25T02:53:14.533Z,20.53
2019-03-25T02:55:45.886Z,22.40
2019-03-25T02:58:17.233Z,24.90
2019-03-25T03:00:48.533Z,22.43
2019-03-25T03:03:20.032Z,23.70
2019-03-25T03:05:51.291Z,19.70
2019-03-25T03:08:22.714Z,23.30
2019-03-25T03:10:53.946Z,20.37
2019-03-25T03:13:25.334Z,19.90
2019-03-25T03:15:56.734Z,19.80
2019-03-25T03:18:27.965Z,24.13
2019-03-25T03:20:59.206Z,24.87
2019-03-25T03:23:30.330Z,20.67
2019-03-25T03:26:01.775Z,21.47
2019-03-25T03:28:34.097Z,22.57
2019-03-25T03:31:05.317Z,21.27
2019-03-25T03:33:36.729Z,25.17
2019-03-25T03:36:08.251Z,23.70
2019-03-25T03:38:39.304Z,20.50
2019-03-25T03:41:10.649Z,20.80
2019-03-25T03:43:41.898Z,26.77
2019-03-25T03:46:13.552Z,21.73
2019-03-25T03:48:44.822Z,24.20
2019-03-25T03:51:16.249Z,26.03
2019-03-25T03:53:47.508Z,22.67
2019-03-25T03:56:20.100Z,22.17
2019-03-25T03:58:51.907Z,21.83
2019-03-25T04:01:23.430Z,23.13
2019-03-25T04:03:54.806Z,22.50
2019-03-25T04:06:25.851Z,25.13
2019-03-25T04:08:57.037Z,26.80
2019-03-25T04:11:28.226Z,23.30
2019-03-25T04:13:59.610Z,23.27
2019-03-25T04:16:30.853Z,22.57
2019-03-25T04:19:02.260Z,24.27
2019-03-25T04:21:33.785Z,25.23
2019-03-25T04:24:05.002Z,23.77
2019-03-25T04:26:36.353Z,22.27
2019-03-25T04:29:07.818Z,22.27
2019-03-25T04:31:38.788Z,22.37
2019-03-25T04:34:10.188Z,25.53
2019-03-25T04:36:41.673Z,21.90
2019-03-25T04:39:13.011Z,25.53
2019-03-25T04:41:44.513Z,22.60
2019-03-25T04:44:16.088Z,23.00
2019-03-25T04:46:47.473Z,21.73
2019-03-25T04:49:18.516Z,22.20
2019-03-25T04:51:49.708Z,23.97
2019-03-25T04:54:21.082Z,23.33
2019-03-25T04:56:52.165Z,23.37
2019-03-25T04:59:23.482Z,26.80
2019-03-25T05:01:54.558Z,23.13
2019-03-25T05:04:27.104Z,24.17
2019-03-25T05:06:58.429Z,29.03
2019-03-25T05:09:29.732Z,24.13
2019-03-25T05:12:01.217Z,19.73
2019-03-25T05:14:32.577Z,19.27
2019-03-25T05:17:03.949Z,27.70
2019-03-25T05:19:35.200Z,24.17
2019-03-25T05:22:06.412Z,25.37
2019-03-25T05:24:37.884Z,22.30
2019-03-25T05:27:09.281Z,25.67
2019-03-25T05:29:40.561Z,25.13
2019-03-25T05:32:11.566Z,23.93
2019-03-25T05:34:42.665Z,23.10
2019-03-25T05:37:13.760Z,21.50
2019-03-25T05:39:45.905Z,26.10
2019-03-25T05:42:17.486Z,22.63
2019-03-25T05:44:48.980Z,22.03
2019-03-25T05:47:20.314Z,25.50
2019-03-25T05:49:51.373Z,24.33
2019-03-25T05:52:22.280Z,32.70
2019-03-25T05:54:53.344Z,22.93
2019-03-25T05:57:24.809Z,23.10
2019-03-25T05:59:56.979Z,21.03
2019-03-25T06:02:28.192Z,18.50
2019-03-25T06:04:59.205Z,16.80
2019-03-25T06:07:30.206Z,17.03
2019-03-25T06:10:01.333Z,20.03
2019-03-25T06:12:33.400Z,16.47
2019-03-25T06:15:04.863Z,15.27
2019-03-25T06:17:35.973Z,17.53
2019-03-25T06:20:07.800Z,20.20
2019-03-25T06:22:38.844Z,14.80
2019-03-25T06:25:10.182Z,17.77
2019-03-25T06:27:50.207Z,21.70
2019-03-25T06:30:23.905Z,20.30
2019-03-25T06:33:11.973Z,22.10
2019-03-25T06:35:35.287Z,21.60
2019-03-25T06:38:06.376Z,22.90
2019-03-25T06:40:37.939Z,20.80
2019-03-25T06:43:09.103Z,17.70
2019-03-25T06:45:40.231Z,21.13
2019-03-25T06:48:11.250Z,23.23
2019-03-25T06:50:42.409Z,22.17
2019-03-25T06:53:13.565Z,21.43
2019-03-25T06:55:44.628Z,21.20
2019-03-25T06:58:15.914Z,26.20
2019-03-25T07:00:47.047Z,23.17
2019-03-25T07:03:18.170Z,20.57
2019-03-25T07:05:49.386Z,27.27
2019-03-25T07:08:20.513Z,22.40
2019-03-25T07:10:51.760Z,23.07
2019-03-25T07:13:23.693Z,24.13
2019-03-25T07:15:54.834Z,22.97
2019-03-25T07:18:26.055Z,25.67
2019-03-25T07:20:57.262Z,35.70
2019-03-25T07:23:28.458Z,20.97
2019-03-25T07:25:59.809Z,18.97
2019-03-25T07:28:30.899Z,12.57
2019-03-25T07:31:02.113Z,16.00
2019-03-25T07:33:33.390Z,12.20
2019-03-25T07:36:04.832Z,14.10
2019-03-25T07:38:36.034Z,15.80
2019-03-25T07:41:07.196Z,14.03
2019-03-25T07:43:38.689Z,13.53
2019-03-25T07:46:09.753Z,13.57
2019-03-25T07:48:40.768Z,10.87
2019-03-25T07:51:11.811Z,14.77
2019-03-25T07:53:44.074Z,11.50
2019-03-25T07:56:16.246Z,8.67
2019-03-25T07:58:47.287Z,14.00
2019-03-25T08:01:18.376Z,14.20
2019-03-25T08:03:49.713Z,11.13
2019-03-25T08:06:20.796Z,13.93
2019-03-25T08:09:03.139Z,15.00
2019-03-25T08:11:24.661Z,13.87
2019-03-25T08:13:55.909Z,13.80
2019-03-25T08:16:27.124Z,11.10
2019-03-25T08:18:58.283Z,10.77
2019-03-25T08:21:29.557Z,14.03
2019-03-25T08:24:00.693Z,11.53
2019-03-25T08:26:32.851Z,15.03
2019-03-25T08:29:05.506Z,11.93
2019-03-25T08:31:36.790Z,12.33
2019-03-25T08:34:07.839Z,12.37
2019-03-25T08:36:38.823Z,12.13
2019-03-25T08:39:09.814Z,11.43
2019-03-25T08:41:40.760Z,13.47
2019-03-25T08:44:12.003Z,12.10
2019-03-25T08:46:43.103Z,9.83
2019-03-25T08:49:14.115Z,13.47
2019-03-25T08:51:45.686Z,11.73
2019-03-25T08:54:17.036Z,11.37
2019-03-25T08:56:48.086Z,15.00
2019-03-25T08:59:19.286Z,13.30
2019-03-25T09:01:50.362Z,12.07
2019-03-25T09:04:21.526Z,14.33
2019-03-25T09:06:54.216Z,10.23
2019-03-25T09:09:25.333Z,11.50
2019-03-25T09:11:56.526Z,12.87
2019-03-25T09:14:27.716Z,12.17
2019-03-25T09:17:00.620Z,11.33
2019-03-25T09:19:31.946Z,12.67
2019-03-25T09:22:03.041Z,11.17
2019-03-25T09:24:35.254Z,10.67
2019-03-25T09:27:06.511Z,13.70
2019-03-25T09:29:37.549Z,15.10
2019-03-25T09:32:08.590Z,14.20
2019-03-25T09:34:40.321Z,12.23
2019-03-25T09:37:11.452Z,11.93
2019-03-25T09:39:42.488Z,13.30
2019-03-25T09:42:13.884Z,11.63
2019-03-25T09:44:44.857Z,13.33
2019-03-25T09:47:15.939Z,10.93
2019-03-25T09:49:49.838Z,12.30
2019-03-25T09:52:20.953Z,11.50
2019-03-25T09:54:52.595Z,9.43
2019-03-25T09:57:24.965Z,10.20
2019-03-25T09:59:56.183Z,10.27
2019-03-25T10:02:28.581Z,13.17
2019-03-25T10:04:59.617Z,9.23
2019-03-25T10:07:30.865Z,12.67
2019-03-25T10:10:01.999Z,11.47
2019-03-25T10:12:34.045Z,11.43
2019-03-25T10:15:06.747Z,9.57
2019-03-25T10:17:38.036Z,13.60
2019-03-25T10:20:10.585Z,12.70
2019-03-25T10:22:41.881Z,11.93
2019-03-25T10:25:14.019Z,10.57
2019-03-25T10:27:46.125Z,12.20
2019-03-25T10:30:18.284Z,11.90
2019-03-25T10:32:49.625Z,10.83
2019-03-25T10:35:20.896Z,10.53
2019-03-25T10:37:52.126Z,11.30
2019-03-25T10:40:23.660Z,10.93
2019-03-25T10:42:54.881Z,16.23
2019-03-25T10:45:26.037Z,17.67
2019-03-25T10:47:58.121Z,14.53
2019-03-25T10:50:29.485Z,16.40
2019-03-25T10:53:00.595Z,14.40
2019-03-25T10:55:31.805Z,15.10
2019-03-25T10:58:03.013Z,18.27
2019-03-25T11:00:34.499Z,13.03
2019-03-25T11:03:05.767Z,16.10
2019-03-25T11:05:37.000Z,14.93
2019-03-25T11:08:07.997Z,15.10
2019-03-25T11:10:39.294Z,14.45
2019-03-25T11:13:18.887Z,14.03
2019-03-25T11:15:50.081Z,14.37
2019-03-25T11:18:21.370Z,13.80
2019-03-25T11:20:52.645Z,15.18
2019-03-25T11:23:23.751Z,14.68
2019-03-25T11:25:59.098Z,13.30
2019-03-25T11:28:30.524Z,14.15
2019-03-25T11:31:02.368Z,12.82
2019-03-25T11:33:33.574Z,12.45
2019-03-25T11:36:05.057Z,10.82
2019-03-25T11:38:37.929Z,13.25
2019-03-25T11:41:09.096Z,15.48
2019-03-25T11:43:40.347Z,12.13
2019-03-25T11:46:11.473Z,10.75
2019-03-25T11:48:42.565Z,12.63
2019-03-25T11:51:14.005Z,10.80
2019-03-25T11:53:44.958Z,9.80
2019-03-25T11:56:16.193Z,11.80
2019-03-25T11:58:47.400Z,9.08
2019-03-25T12:01:18.674Z,8.38
2019-03-25T12:03:49.937Z,8.68
2019-03-25T12:06:21.299Z,9.43
2019-03-25T12:08:52.367Z,11.20
2019-03-25T12:11:23.792Z,8.95
2019-03-25T12:13:55.058Z,7.72
2019-03-25T12:16:26.155Z,7.30
2019-03-25T12:18:57.306Z,6.67
2019-03-25T12:21:28.361Z,6.70
2019-03-25T12:23:59.400Z,4.78
2019-03-25T12:26:30.514Z,6.25
2019-03-25T12:29:01.929Z,6.30
2019-03-25T12:31:33.128Z,6.28
2019-03-25T12:34:04.466Z,5.92
2019-03-25T12:36:35.533Z,4.53
2019-03-25T12:39:16.764Z,7.28
2019-03-25T12:41:47.840Z,8.65
2019-03-25T12:44:19.035Z,7.03
2019-03-25T12:46:50.308Z,6.12
2019-03-25T12:49:21.453Z,3.62
2019-03-25T12:51:52.577Z,4.97
2019-03-25T12:54:24.063Z,4.15
2019-03-25T12:56:55.180Z,5.97
2019-03-25T12:59:27.196Z,4.65
2019-03-25T13:01:58.558Z,7.33
2019-03-25T13:04:29.736Z,4.03
2019-03-25T13:07:00.793Z,3.70
2019-03-25T13:09:32.938Z,2.58
2019-03-25T13:12:04.203Z,2.87
2019-03-25T13:15:35.823Z,2.40
2019-03-25T13:18:11.641Z,3.95
2019-03-25T13:20:43.793Z,4.08
2019-03-25T13:23:35.452Z,2.20
2019-03-25T13:26:06.766Z,4.25
2019-03-25T13:28:37.993Z,4.47
2019-03-25T13:31:09.178Z,3.47
2019-03-25T13:33:40.666Z,2.92
2019-03-25T13:36:11.857Z,2.27
2019-03-25T13:38:42.959Z,2.75
2019-03-25T13:41:14.192Z,3.92
2019-03-25T13:43:46.713Z,3.25
2019-03-25T13:46:17.846Z,3.67
2019-03-25T13:48:49.120Z,2.85
2019-03-25T13:51:20.173Z,1.62
2019-03-25T13:53:51.454Z,2.25
2019-03-25T13:56:22.637Z,1.92
2019-03-25T13:58:53.972Z,2.58
2019-03-25T14:01:25.095Z,2.55
2019-03-25T14:03:56.440Z,2.42
2019-03-25T14:06:27.582Z,2.37
2019-03-25T14:08:58.808Z,5.15
2019-03-25T14:11:31.745Z,1.70
2019-03-25T14:14:04.447Z,1.60
2019-03-25T14:16:35.597Z,1.77
2019-03-25T14:19:06.746Z,2.45
2019-03-25T14:21:37.890Z,3.30
2019-03-25T14:24:08.986Z,1.55
2019-03-25T14:26:42.978Z,2.72
2019-03-25T14:29:13.953Z,2.12
2019-03-25T14:31:45.091Z,1.53
2019-03-25T14:34:16.345Z,1.60
2019-03-25T14:36:47.433Z,2.47
2019-03-25T14:39:18.522Z,2.10
2019-03-25T14:41:49.588Z,2.47
2019-03-25T14:44:20.642Z,2.07
2019-03-25T14:46:51.793Z,3.73
2019-03-25T14:49:22.921Z,2.13
2019-03-25T14:51:54.185Z,2.10
2019-03-25T14:54:25.493Z,1.00
2019-03-25T14:56:56.762Z,2.07
2019-03-25T14:59:27.990Z,2.50
2019-03-25T15:01:59.173Z,1.20
2019-03-25T15:04:30.343Z,2.67
2019-03-25T15:07:01.326Z,2.33
2019-03-25T15:09:32.445Z,1.13
2019-03-25T15:12:03.610Z,0.90
2019-03-25T15:14:35.757Z,0.90
2019-03-25T15:17:06.770Z,0.83
2019-03-25T15:19:37.957Z,1.43
2019-03-25T15:22:09.375Z,2.40
2019-03-25T15:24:40.490Z,1.93
2019-03-25T15:27:11.669Z,0.90
2019-03-25T15:29:42.872Z,2.27
2019-03-25T15:32:15.127Z,1.93
2019-03-25T15:34:46.357Z,1.10
2019-03-25T15:37:17.437Z,1.73
2019-03-25T15:39:49.436Z,1.53
2019-03-25T15:42:20.613Z,1.53
2019-03-25T15:44:51.890Z,2.13
2019-03-25T15:47:23.237Z,1.63
2019-03-25T15:49:54.420Z,1.57
2019-03-25T15:52:25.799Z,1.73
2019-03-25T15:54:56.868Z,1.70
2019-03-25T15:57:27.938Z,1.53
2019-03-25T16:00:03.533Z,1.63
2019-03-25T16:02:35.922Z,1.17
2019-03-25T16:05:07.439Z,0.60
2019-03-25T16:07:38.544Z,0.80
2019-03-25T16:10:10.439Z,0.63
2019-03-25T16:12:41.988Z,0.50
2019-03-25T16:15:16.979Z,0.63
2019-03-25T16:17:48.514Z,0.60
2019-03-25T16:20:19.617Z,0.83
2019-03-25T16:22:50.706Z,0.50
2019-03-25T16:25:28.674Z,0.87
2019-03-25T16:27:59.963Z,2.47
2019-03-25T16:30:31.154Z,0.60
2019-03-25T16:33:02.317Z,0.83
2019-03-25T16:35:33.481Z,0.70
2019-03-25T16:38:04.540Z,0.80
2019-03-25T16:40:36.705Z,0.60
2019-03-25T16:43:07.789Z,1.77
2019-03-25T16:45:38.836Z,0.87
2019-03-25T16:48:09.987Z,2.50
2019-03-25T16:50:41.336Z,1.10
2019-03-25T16:53:12.431Z,1.40
2019-03-25T16:55:43.626Z,0.83
2019-03-25T16:58:14.578Z,1.10
2019-03-25T17:00:45.639Z,1.20
2019-03-25T17:03:18.424Z,1.17
2019-03-25T17:05:49.822Z,0.90
2019-03-25T17:08:20.982Z,1.30
2019-03-25T17:10:52.270Z,1.30
2019-03-25T17:13:23.404Z,0.93
2019-03-25T17:15:54.584Z,1.40
2019-03-25T17:18:25.752Z,1.57
2019-03-25T17:20:57.077Z,2.20
2019-03-25T17:23:29.368Z,1.10
2019-03-25T17:26:00.370Z,1.57
2019-03-25T17:28:31.564Z,1.57
2019-03-25T17:31:03.210Z,1.70
2019-03-25T17:33:34.272Z,1.57
2019-03-25T17:36:06.487Z,1.23
2019-03-25T17:38:37.589Z,1.87
2019-03-25T17:41:08.901Z,1.93
2019-03-25T17:43:40.045Z,1.90
2019-03-25T17:46:11.102Z,1.60
2019-03-25T17:48:42.367Z,1.57
2019-03-25T17:51:13.523Z,1.67
2019-03-25T17:53:44.648Z,1.40
2019-03-25T17:56:15.783Z,1.63
2019-03-25T17:58:48.759Z,1.57
2019-03-25T18:01:32.444Z,2.40
2019-03-25T18:04:01.956Z,1.50
2019-03-25T18:06:33.816Z,1.97
2019-03-25T18:09:08.302Z,1.40
2019-03-25T18:11:39.448Z,1.40
2019-03-25T18:14:10.562Z,1.53
2019-03-25T18:16:42.486Z,1.47
2019-03-25T18:19:13.889Z,1.67
2019-03-25T18:21:45.652Z,1.40
2019-03-25T18:24:17.076Z,1.30
2019-03-25T18:26:48.911Z,2.93
2019-03-25T18:29:20.078Z,1.40
2019-03-25T18:31:51.208Z,2.33
2019-03-25T18:34:22.417Z,2.17
2019-03-25T18:36:53.928Z,1.80
2019-03-25T18:39:25.332Z,1.33
2019-03-25T18:41:56.496Z,2.07
2019-03-25T18:44:27.629Z,4.00
2019-03-25T18:46:59.005Z,1.57
2019-03-25T18:49:30.702Z,1.77
2019-03-25T18:52:01.889Z,2.03
2019-03-25T18:54:32.976Z,2.50
2019-03-25T18:57:04.517Z,1.80
2019-03-25T18:59:35.685Z,1.03
2019-03-25T19:02:06.950Z,1.30
2019-03-25T19:04:38.121Z,1.37
2019-03-25T19:07:09.320Z,1.43
2019-03-25T19:09:41.687Z,1.90
2019-03-25T19:12:12.828Z,1.27
2019-03-25T19:14:44.112Z,1.10
2019-03-25T19:17:15.409Z,1.60
2019-03-25T19:19:46.799Z,1.50
2019-03-25T19:22:17.975Z,2.27
2019-03-25T19:24:49.116Z,1.70
2019-03-25T19:27:20.522Z,2.80
2019-03-25T19:29:51.784Z,2.13
2019-03-25T19:32:22.963Z,1.30
2019-03-25T19:34:54.164Z,2.20
2019-03-25T19:37:27.241Z,2.00
2019-03-25T19:39:58.840Z,2.80
2019-03-25T19:42:30.023Z,2.20
2019-03-25T19:45:04.048Z,2.00
2019-03-25T19:47:35.267Z,2.40
2019-03-25T19:50:07.201Z,2.43
2019-03-25T19:52:39.336Z,2.67
2019-03-25T19:55:11.113Z,2.07
2019-03-25T19:57:42.282Z,2.27
2019-03-25T20:00:14.263Z,2.50
2019-03-25T20:02:45.587Z,2.30
2019-03-25T20:05:17.475Z,2.30
2019-03-25T20:07:48.902Z,1.70
2019-03-25T20:10:31.239Z,3.33
2019-03-25T20:13:02.692Z,2.63
2019-03-25T20:15:45.566Z,1.70
2019-03-25T20:18:07.095Z,2.70
2019-03-25T20:20:38.276Z,2.93
2019-03-25T20:23:09.453Z,1.97
2019-03-25T20:25:40.624Z,2.27
2019-03-25T20:28:11.944Z,2.23
2019-03-25T20:30:43.144Z,1.83
2019-03-25T20:33:14.475Z,1.90
2019-03-25T20:35:45.633Z,2.10
2019-03-25T20:38:16.893Z,3.07
2019-03-25T20:40:48.455Z,1.80
2019-03-25T20:43:19.824Z,2.47
2019-03-25T20:45:51.198Z,2.40
2019-03-25T20:48:22.384Z,2.93
2019-03-25T20:50:53.675Z,1.77
2019-03-25T20:53:24.902Z,4.20
2019-03-25T20:55:56.223Z,1.70
2019-03-25T20:58:28.703Z,2.40
2019-03-25T21:00:59.986Z,2.27
2019-03-25T21:03:31.613Z,2.10
2019-03-25T21:06:03.839Z,1.80
2019-03-25T21:08:35.115Z,2.33
2019-03-25T21:11:06.418Z,2.13
2019-03-25T21:13:37.497Z,1.50
2019-03-25T21:16:08.795Z,2.13
2019-03-25T21:18:40.018Z,2.40
2019-03-25T21:21:11.025Z,2.60
2019-03-25T21:23:42.343Z,2.33
2019-03-25T21:26:13.601Z,2.13
2019-03-25T21:28:44.779Z,2.20
2019-03-25T21:31:15.964Z,2.50
2019-03-25T21:33:47.122Z,3.17
2019-03-25T21:36:18.286Z,2.70
2019-03-25T21:38:49.417Z,2.23
2019-03-25T21:41:20.671Z,1.30
2019-03-25T21:43:52.253Z,2.07
2019-03-25T21:46:23.527Z,1.70
2019-03-25T21:48:55.036Z,2.07
2019-03-25T21:51:27.684Z,2.83
2019-03-25T21:53:59.016Z,3.00
2019-03-25T21:56:30.527Z,1.70
2019-03-25T21:59:01.864Z,1.57
2019-03-25T22:01:35.913Z,2.43
2019-03-25T22:04:07.664Z,2.33
2019-03-25T22:06:40.248Z,2.17
2019-03-25T22:09:11.541Z,2.07
2019-03-25T22:11:43.121Z,3.23
2019-03-25T22:14:14.634Z,2.03
2019-03-25T22:16:46.270Z,2.50
2019-03-25T22:19:17.900Z,1.87
2019-03-25T22:21:49.783Z,2.40
2019-03-25T22:24:21.262Z,3.00
2019-03-25T22:26:53.184Z,1.83
2019-03-25T22:29:25.242Z,1.60
2019-03-25T22:31:56.688Z,1.40
2019-03-25T22:34:28.000Z,2.63
2019-03-25T22:36:59.676Z,1.80
2019-03-25T22:39:31.209Z,2.90
2019-03-25T22:42:02.345Z,2.10
2019-03-25T22:44:33.517Z,2.00
2019-03-25T22:47:04.814Z,3.43
2019-03-25T22:49:36.116Z,2.23
2019-03-25T22:52:07.671Z,2.17
2019-03-25T22:54:39.114Z,1.90
2019-03-25T22:57:10.502Z,2.53
2019-03-25T22:59:41.775Z,2.97
2019-03-25T23:02:14.561Z,2.57
2019-03-25T23:04:45.671Z,3.50
2019-03-25T23:07:17.321Z,2.50
2019-03-25T23:09:48.803Z,1.70
2019-03-25T23:12:20.112Z,1.90
2019-03-25T23:14:51.563Z,2.47
2019-03-25T23:17:22.724Z,2.67
2019-03-25T23:19:54.240Z,2.20
2019-03-25T23:22:26.135Z,2.30
2019-03-25T23:24:57.421Z,1.70
2019-03-25T23:27:28.727Z,2.20
2019-03-25T23:29:59.730Z,2.17
2019-03-25T23:32:31.108Z,2.63
2019-03-25T23:35:02.237Z,2.00
2019-03-25T23:37:33.560Z,2.17
2019-03-25T23:40:05.117Z,2.23
2019-03-25T23:42:36.098Z,2.20
2019-03-25T23:45:07.492Z,2.40
2019-03-25T23:47:38.569Z,2.17
2019-03-25T23:50:09.669Z,2.53
2019-03-25T23:52:40.995Z,1.80
2019-03-25T23:55:12.043Z,2.57
2019-03-25T23:57:44.167Z,2.07
